WAT380 SCCY-SCNT
Flight info
| Callsign | WAT380 |
|---|---|
| Flight time | N/A |
| Altitude | 33000 |
| Route | 453710S0720835W DCT SURTA DCT BETRI DCT NIPLA DCT SINEL DCT KOLPU DCT TOKOS DCT TOPEM DCT TEKIS DCT 5148S07210W |
| Aircraft | E145/M-SDFGIRW/S |
Departure
| Time | 2026-04-26 23:28 |
|---|---|
| Airport | Teniente Vidal Airport (SCCY) |
Arrival
| Time | N/A |
|---|---|
| Airport | Lieutenant Julio Gallardo Airport (SCNT) |
| Time | Latitude | Longitude | Altitude | Speed | Heading |
|---|---|---|---|---|---|
| 2026-04-26 23:15 | -45.59594 | -72.11038 | 961 ft | 0 kts | 227° |
| 2026-04-26 23:26 | -45.59595 | -72.11042 | 961 ft | 1 kts | 257° |
| 2026-04-26 23:26 | -45.59585 | -72.11049 | 961 ft | 3 kts | 12° |
| 2026-04-26 23:27 | -45.59587 | -72.11014 | 960 ft | 6 kts | 133° |
| 2026-04-26 23:27 | -45.59622 | -72.10961 | 960 ft | 8 kts | 119° |
| 2026-04-26 23:27 | -45.59312 | -72.10456 | 950 ft | 11 kts | 44° |
| 2026-04-26 23:27 | -45.58960 | -72.09965 | 947 ft | 13 kts | 32° |
| 2026-04-26 23:28 | -45.58929 | -72.09907 | 947 ft | 7 kts | 197° |
| 2026-04-26 23:28 | -45.58984 | -72.09980 | 947 ft | 30 kts | 226° |
| 2026-04-26 23:28 | -45.59433 | -72.10639 | 955 ft | 144 kts | 226° |
| 2026-04-26 23:28 | -45.60220 | -72.11758 | 1716 ft | 177 kts | 226° |
| 2026-04-26 23:29 | -45.61209 | -72.13213 | 2088 ft | 238 kts | 227° |
| 2026-04-26 23:29 | -45.62656 | -72.14504 | 3062 ft | 262 kts | 193° |
| 2026-04-26 23:29 | -45.64368 | -72.14959 | 4705 ft | 254 kts | 193° |
| 2026-04-26 23:29 | -45.66075 | -72.15428 | 6046 ft | 257 kts | 193° |
| 2026-04-26 23:30 | -45.67837 | -72.15906 | 7244 ft | 263 kts | 194° |
| 2026-04-26 23:30 | -45.69599 | -72.16384 | 8570 ft | 261 kts | 196° |
| 2026-04-26 23:30 | -45.71324 | -72.16854 | 9832 ft | 258 kts | 199° |
| 2026-04-26 23:30 | -45.73076 | -72.17348 | 10881 ft | 263 kts | 198° |
| 2026-04-26 23:31 | -45.74929 | -72.17869 | 11534 ft | 281 kts | 197° |
| 2026-04-26 23:31 | -45.76881 | -72.18404 | 12178 ft | 297 kts | 196° |
| 2026-04-26 23:31 | -45.78942 | -72.18970 | 13027 ft | 303 kts | 195° |
| 2026-04-26 23:31 | -45.80999 | -72.19534 | 13964 ft | 305 kts | 195° |
| 2026-04-26 23:32 | -45.83050 | -72.20095 | 14913 ft | 305 kts | 195° |
| 2026-04-26 23:32 | -45.85129 | -72.20665 | 15738 ft | 307 kts | 195° |
| 2026-04-26 23:32 | -45.87263 | -72.21256 | 16460 ft | 312 kts | 195° |
| 2026-04-26 23:32 | -45.89381 | -72.21838 | 17219 ft | 314 kts | 195° |
| 2026-04-26 23:33 | -45.91542 | -72.22433 | 17976 ft | 316 kts | 195° |
| 2026-04-26 23:33 | -45.93702 | -72.23032 | 18699 ft | 317 kts | 195° |
| 2026-04-26 23:33 | -45.95825 | -72.23614 | 19537 ft | 314 kts | 195° |
| 2026-04-26 23:33 | -45.97960 | -72.24208 | 20252 ft | 314 kts | 195° |
| 2026-04-26 23:34 | -46.00121 | -72.24806 | 20976 ft | 314 kts | 195° |
| 2026-04-26 23:34 | -46.02249 | -72.25399 | 21680 ft | 314 kts | 195° |
| 2026-04-26 23:34 | -46.04402 | -72.25992 | 22314 ft | 315 kts | 195° |
| 2026-04-26 23:34 | -46.06527 | -72.26587 | 22964 ft | 315 kts | 194° |
| 2026-04-26 23:35 | -46.08688 | -72.27181 | 23639 ft | 314 kts | 194° |
| 2026-04-26 23:35 | -46.10804 | -72.27769 | 24308 ft | 312 kts | 194° |
| 2026-04-26 23:35 | -46.12924 | -72.28355 | 25002 ft | 310 kts | 195° |
| 2026-04-26 23:35 | -46.15022 | -72.28938 | 25713 ft | 307 kts | 195° |
| 2026-04-26 23:36 | -46.17113 | -72.29523 | 26466 ft | 303 kts | 195° |
| 2026-04-26 23:36 | -46.19190 | -72.30102 | 27102 ft | 302 kts | 195° |
| 2026-04-26 23:36 | -46.21233 | -72.30672 | 27707 ft | 302 kts | 196° |
| 2026-04-26 23:36 | -46.23304 | -72.31251 | 28387 ft | 299 kts | 196° |
| 2026-04-26 23:37 | -46.25370 | -72.31830 | 29023 ft | 296 kts | 196° |
| 2026-04-26 23:37 | -46.27368 | -72.32387 | 29640 ft | 294 kts | 197° |
| 2026-04-26 23:37 | -46.29386 | -72.32951 | 30242 ft | 291 kts | 197° |
| 2026-04-26 23:37 | -46.31331 | -72.33653 | 30747 ft | 286 kts | 205° |
| 2026-04-26 23:38 | -46.33196 | -72.34582 | 31348 ft | 282 kts | 204° |
| 2026-04-26 23:38 | -46.35036 | -72.35487 | 31952 ft | 277 kts | 204° |
| 2026-04-26 23:38 | -46.36842 | -72.36368 | 32423 ft | 276 kts | 204° |
| 2026-04-26 23:38 | -46.38664 | -72.37260 | 32947 ft | 273 kts | 205° |
| 2026-04-26 23:39 | -46.40434 | -72.38133 | 33475 ft | 269 kts | 205° |
| 2026-04-26 23:39 | -46.42183 | -72.38996 | 33990 ft | 265 kts | 204° |
| 2026-04-26 23:39 | -46.43964 | -72.39871 | 34030 ft | 276 kts | 205° |
| 2026-04-26 23:39 | -46.45831 | -72.40799 | 34052 ft | 288 kts | 205° |
| 2026-04-26 23:40 | -46.47749 | -72.41747 | 34064 ft | 299 kts | 204° |
| 2026-04-26 23:40 | -46.49784 | -72.42751 | 34058 ft | 310 kts | 204° |
| 2026-04-26 23:40 | -46.51867 | -72.43778 | 34053 ft | 320 kts | 204° |
| 2026-04-26 23:41 | -46.56210 | -72.45919 | 34027 ft | 337 kts | 204° |
| 2026-04-26 23:41 | -46.60716 | -72.48158 | 34033 ft | 347 kts | 204° |
| 2026-04-26 23:42 | -46.65315 | -72.50435 | 34039 ft | 353 kts | 203° |
| 2026-04-26 23:42 | -46.72379 | -72.53937 | 34099 ft | 358 kts | 204° |
| 2026-04-26 23:43 | -46.77105 | -72.56303 | 34101 ft | 360 kts | 204° |
| 2026-04-26 23:43 | -46.81869 | -72.58678 | 34114 ft | 361 kts | 204° |
| 2026-04-26 23:44 | -46.86661 | -72.61075 | 34083 ft | 364 kts | 204° |
| 2026-04-26 23:44 | -46.91458 | -72.63480 | 34056 ft | 365 kts | 204° |
| 2026-04-26 23:45 | -46.96282 | -72.65906 | 34048 ft | 366 kts | 204° |
| 2026-04-26 23:45 | -47.01077 | -72.68323 | 34024 ft | 367 kts | 205° |
| 2026-04-26 23:46 | -47.05876 | -72.70731 | 34028 ft | 368 kts | 205° |
| 2026-04-26 23:46 | -47.10708 | -72.73176 | 34041 ft | 368 kts | 205° |
| 2026-04-26 23:47 | -47.15582 | -72.75645 | 34060 ft | 369 kts | 205° |
| 2026-04-26 23:47 | -47.20411 | -72.78091 | 34076 ft | 369 kts | 205° |
| 2026-04-26 23:48 | -47.25239 | -72.80544 | 34067 ft | 370 kts | 205° |
| 2026-04-26 23:48 | -47.30164 | -72.83059 | 34051 ft | 371 kts | 205° |
| 2026-04-26 23:49 | -47.35068 | -72.85558 | 34041 ft | 373 kts | 205° |
| 2026-04-26 23:49 | -47.39962 | -72.88061 | 34046 ft | 373 kts | 205° |
| 2026-04-26 23:50 | -47.44870 | -72.90573 | 34045 ft | 374 kts | 205° |
| 2026-04-26 23:50 | -47.49807 | -72.93108 | 34048 ft | 375 kts | 205° |
| 2026-04-26 23:51 | -47.54727 | -72.95639 | 34062 ft | 375 kts | 204° |
| 2026-04-26 23:51 | -47.59690 | -72.98196 | 34046 ft | 377 kts | 205° |
| 2026-04-26 23:52 | -47.64633 | -73.00748 | 34039 ft | 377 kts | 205° |
| 2026-04-26 23:52 | -47.69617 | -73.03326 | 34016 ft | 378 kts | 204° |
| 2026-04-26 23:53 | -47.74563 | -73.05889 | 34019 ft | 378 kts | 205° |
| 2026-04-26 23:53 | -47.79574 | -73.08495 | 34032 ft | 379 kts | 205° |
| 2026-04-26 23:54 | -47.84551 | -73.11081 | 34066 ft | 380 kts | 204° |
| 2026-04-26 23:54 | -47.89554 | -73.13694 | 34071 ft | 381 kts | 204° |
| 2026-04-26 23:55 | -47.94573 | -73.16318 | 34088 ft | 381 kts | 205° |
| 2026-04-26 23:55 | -47.99564 | -73.18932 | 34092 ft | 382 kts | 205° |
| 2026-04-26 23:56 | -48.04612 | -73.21579 | 34091 ft | 383 kts | 204° |
| 2026-04-26 23:56 | -48.09618 | -73.24215 | 34083 ft | 383 kts | 205° |
| 2026-04-26 23:57 | -48.14640 | -73.26858 | 34074 ft | 384 kts | 205° |
| 2026-04-26 23:57 | -48.19753 | -73.29559 | 34071 ft | 385 kts | 205° |
| 2026-04-26 23:58 | -48.24800 | -73.32229 | 34073 ft | 385 kts | 204° |
| 2026-04-26 23:58 | -48.29857 | -73.34911 | 34027 ft | 386 kts | 205° |
| 2026-04-26 23:59 | -48.34919 | -73.37601 | 33965 ft | 387 kts | 204° |
| 2026-04-26 23:59 | -48.39974 | -73.40292 | 33949 ft | 387 kts | 204° |
| 2026-04-27 00:00 | -48.45067 | -73.43008 | 33938 ft | 387 kts | 205° |
| 2026-04-27 00:00 | -48.50117 | -73.45710 | 33943 ft | 386 kts | 205° |
| 2026-04-27 00:01 | -48.55197 | -73.48426 | 33933 ft | 387 kts | 205° |
| 2026-04-27 00:01 | -48.60264 | -73.51150 | 33937 ft | 386 kts | 205° |
| 2026-04-27 00:02 | -48.65341 | -73.53882 | 33939 ft | 386 kts | 205° |
| 2026-04-27 00:02 | -48.70410 | -73.56613 | 33920 ft | 387 kts | 205° |
| 2026-04-27 00:03 | -48.75480 | -73.59351 | 33919 ft | 387 kts | 205° |
| 2026-04-27 00:03 | -48.80588 | -73.62121 | 33926 ft | 387 kts | 205° |
| 2026-04-27 00:04 | -48.85649 | -73.64866 | 33917 ft | 387 kts | 205° |
| 2026-04-27 00:04 | -48.90673 | -73.67592 | 33917 ft | 388 kts | 206° |
| 2026-04-27 00:05 | -48.95786 | -73.70383 | 33906 ft | 388 kts | 206° |
| 2026-04-27 00:05 | -49.00956 | -73.73206 | 33923 ft | 388 kts | 205° |
| 2026-04-27 00:06 | -49.06055 | -73.75996 | 33934 ft | 388 kts | 206° |
| 2026-04-27 00:06 | -49.11138 | -73.78783 | 33947 ft | 388 kts | 206° |
| 2026-04-27 00:07 | -49.16184 | -73.81561 | 33969 ft | 388 kts | 206° |
| 2026-04-27 00:07 | -49.21194 | -73.84315 | 33972 ft | 389 kts | 206° |
| 2026-04-27 00:08 | -49.26321 | -73.87148 | 33984 ft | 388 kts | 206° |
| 2026-04-27 00:08 | -49.31686 | -73.88988 | 34018 ft | 400 kts | 192° |
| 2026-04-27 00:09 | -49.37262 | -73.89715 | 33993 ft | 401 kts | 192° |
| 2026-04-27 00:09 | -49.42832 | -73.90434 | 33975 ft | 402 kts | 193° |
| 2026-04-27 00:10 | -49.48428 | -73.91154 | 33975 ft | 402 kts | 192° |
| 2026-04-27 00:10 | -49.53981 | -73.91868 | 33968 ft | 402 kts | 193° |
| 2026-04-27 00:11 | -49.59582 | -73.92598 | 33961 ft | 403 kts | 192° |
| 2026-04-27 00:11 | -49.65173 | -73.93321 | 33967 ft | 403 kts | 192° |
| 2026-04-27 00:12 | -49.70764 | -73.94048 | 33938 ft | 404 kts | 193° |
| 2026-04-27 00:12 | -49.76373 | -73.94779 | 33937 ft | 404 kts | 193° |
| 2026-04-27 00:13 | -49.81984 | -73.95515 | 33953 ft | 405 kts | 193° |
| 2026-04-27 00:13 | -49.87611 | -73.96250 | 33955 ft | 405 kts | 193° |
| 2026-04-27 00:14 | -49.93226 | -73.96990 | 33971 ft | 405 kts | 193° |
| 2026-04-27 00:14 | -49.98849 | -73.97726 | 33988 ft | 405 kts | 193° |
| 2026-04-27 00:15 | -50.04488 | -73.98476 | 33990 ft | 406 kts | 194° |
| 2026-04-27 00:15 | -50.10108 | -73.99216 | 34006 ft | 406 kts | 193° |
| 2026-04-27 00:16 | -50.15753 | -73.99972 | 33998 ft | 407 kts | 193° |
| 2026-04-27 00:16 | -50.21355 | -74.00709 | 33987 ft | 408 kts | 193° |
| 2026-04-27 00:17 | -50.27040 | -74.01468 | 33977 ft | 409 kts | 193° |
| 2026-04-27 00:17 | -50.32743 | -74.02230 | 33964 ft | 410 kts | 193° |
| 2026-04-27 00:18 | -50.38480 | -74.01195 | 33961 ft | 441 kts | 161° |
| 2026-04-27 00:18 | -50.43819 | -73.96330 | 33945 ft | 446 kts | 157° |
| 2026-04-27 00:19 | -50.49223 | -73.91459 | 33929 ft | 447 kts | 157° |
| 2026-04-27 00:19 | -50.54625 | -73.86580 | 33926 ft | 447 kts | 158° |
| 2026-04-27 00:20 | -50.59996 | -73.81723 | 33931 ft | 447 kts | 157° |
| 2026-04-27 00:20 | -50.65395 | -73.76825 | 33911 ft | 448 kts | 157° |
| 2026-04-27 00:21 | -50.70799 | -73.71912 | 33904 ft | 447 kts | 157° |
| 2026-04-27 00:21 | -50.76200 | -73.66988 | 33865 ft | 449 kts | 156° |
| 2026-04-27 00:22 | -50.81604 | -73.62045 | 33837 ft | 449 kts | 156° |
| 2026-04-27 00:22 | -50.87025 | -73.57076 | 33815 ft | 449 kts | 156° |
| 2026-04-27 00:23 | -50.92421 | -73.52119 | 33781 ft | 449 kts | 156° |
| 2026-04-27 00:23 | -50.95126 | -73.49619 | 33356 ft | 443 kts | 156° |
| 2026-04-27 00:23 | -50.97738 | -73.47210 | 32912 ft | 428 kts | 155° |
| 2026-04-27 00:24 | -51.00297 | -73.44850 | 32457 ft | 421 kts | 156° |
| 2026-04-27 00:24 | -51.02831 | -73.42507 | 32017 ft | 419 kts | 156° |
| 2026-04-27 00:24 | -51.05341 | -73.40182 | 31549 ft | 417 kts | 156° |
| 2026-04-27 00:24 | -51.07840 | -73.37869 | 31109 ft | 416 kts | 155° |
| 2026-04-27 00:25 | -51.10345 | -73.35542 | 30658 ft | 416 kts | 155° |
| 2026-04-27 00:25 | -51.12843 | -73.33221 | 30119 ft | 416 kts | 155° |
| 2026-04-27 00:25 | -51.15351 | -73.30885 | 29590 ft | 415 kts | 154° |
| 2026-04-27 00:25 | -51.17817 | -73.28587 | 29078 ft | 415 kts | 155° |
| 2026-04-27 00:26 | -51.20321 | -73.26251 | 28556 ft | 414 kts | 155° |
| 2026-04-27 00:26 | -51.22789 | -73.23942 | 28021 ft | 414 kts | 155° |
| 2026-04-27 00:26 | -51.25288 | -73.21609 | 27506 ft | 413 kts | 155° |
| 2026-04-27 00:26 | -51.27797 | -73.19263 | 26980 ft | 413 kts | 154° |
| 2026-04-27 00:27 | -51.30257 | -73.16948 | 26459 ft | 413 kts | 154° |
| 2026-04-27 00:27 | -51.32752 | -73.14602 | 25931 ft | 412 kts | 155° |
| 2026-04-27 00:27 | -51.35210 | -73.12297 | 25405 ft | 411 kts | 154° |
| 2026-04-27 00:27 | -51.37674 | -73.09969 | 24909 ft | 410 kts | 154° |
| 2026-04-27 00:28 | -51.40132 | -73.07651 | 24408 ft | 410 kts | 154° |
| 2026-04-27 00:28 | -51.42583 | -73.05333 | 23916 ft | 409 kts | 154° |
| 2026-04-27 00:28 | -51.45032 | -73.03019 | 23406 ft | 409 kts | 155° |
| 2026-04-27 00:28 | -51.47489 | -73.00693 | 22902 ft | 408 kts | 154° |
| 2026-04-27 00:29 | -51.49923 | -72.98386 | 22403 ft | 408 kts | 154° |
| 2026-04-27 00:29 | -51.52343 | -72.96092 | 21917 ft | 407 kts | 154° |
| 2026-04-27 00:29 | -51.54802 | -72.93748 | 21409 ft | 406 kts | 154° |
| 2026-04-27 00:29 | -51.57227 | -72.91440 | 20901 ft | 405 kts | 155° |
| 2026-04-27 00:30 | -51.59631 | -72.89153 | 20414 ft | 404 kts | 155° |
| 2026-04-27 00:30 | -51.62054 | -72.86842 | 19899 ft | 404 kts | 154° |
| 2026-04-27 00:30 | -51.64455 | -72.84551 | 19412 ft | 403 kts | 155° |
| 2026-04-27 00:30 | -51.66882 | -72.82227 | 18901 ft | 402 kts | 155° |
| 2026-04-27 00:31 | -51.69273 | -72.79937 | 18403 ft | 402 kts | 154° |
| 2026-04-27 00:31 | -51.71703 | -72.77608 | 17870 ft | 401 kts | 155° |
| 2026-04-27 00:31 | -51.74065 | -72.75338 | 17386 ft | 395 kts | 155° |